createdAt,value
2018-10-02T00:01:12.345Z,72.00
2018-10-02T00:03:40.738Z,72.30
2018-10-02T00:06:09.389Z,72.63
2018-10-02T00:08:37.774Z,72.66
2018-10-02T00:11:11.385Z,72.52
2018-10-02T00:13:45.101Z,72.54
2018-10-02T00:16:13.705Z,72.67
2018-10-02T00:18:42.038Z,72.78
2018-10-02T00:21:10.397Z,72.54
2018-10-02T00:23:38.784Z,72.53
2018-10-02T00:26:07.121Z,72.60
2018-10-02T00:28:35.420Z,72.62
2018-10-02T00:31:03.993Z,72.81
2018-10-02T00:33:33.118Z,72.66
2018-10-02T00:36:01.385Z,72.62
2018-10-02T00:38:29.913Z,72.96
2018-10-02T00:40:58.174Z,73.08
2018-10-02T00:43:26.605Z,72.88
2018-10-02T00:45:55.041Z,72.92
2018-10-02T00:48:23.413Z,72.71
2018-10-02T00:50:51.693Z,72.56
2018-10-02T00:53:20.117Z,72.63
2018-10-02T00:55:48.530Z,72.59
2018-10-02T00:58:16.797Z,72.50
2018-10-02T01:00:45.404Z,72.56
2018-10-02T01:03:13.657Z,72.62
2018-10-02T01:05:41.981Z,72.71
2018-10-02T01:08:10.359Z,72.63
2018-10-02T01:10:38.649Z,72.80
2018-10-02T01:13:07.996Z,72.72
2018-10-02T01:15:36.340Z,72.98
2018-10-02T01:18:04.624Z,73.25
2018-10-02T01:20:32.924Z,73.31
2018-10-02T01:23:01.222Z,73.40
2018-10-02T01:25:29.542Z,73.77
2018-10-02T01:27:57.808Z,73.79
2018-10-02T01:30:26.210Z,73.75
2018-10-02T01:32:54.520Z,74.01
2018-10-02T01:35:22.906Z,74.17
2018-10-02T01:37:51.392Z,74.37
2018-10-02T01:40:19.774Z,74.10
2018-10-02T01:42:48.044Z,73.98
2018-10-02T01:45:16.336Z,74.16
2018-10-02T01:47:44.706Z,74.52
2018-10-02T01:50:14.218Z,74.28
2018-10-02T01:52:42.642Z,74.27
2018-10-02T01:55:11.053Z,74.22
2018-10-02T01:57:39.334Z,74.40
2018-10-02T02:00:08.109Z,74.36
2018-10-02T02:02:36.594Z,74.58
2018-10-02T02:05:05.609Z,74.65
2018-10-02T02:07:34.197Z,74.63
2018-10-02T02:10:02.699Z,74.47
2018-10-02T02:12:31.146Z,74.28
2018-10-02T02:14:59.633Z,74.27
2018-10-02T02:17:27.934Z,74.19
2018-10-02T02:19:56.307Z,74.28
2018-10-02T02:22:24.609Z,74.39
2018-10-02T02:24:54.097Z,74.44
2018-10-02T02:27:22.438Z,74.63
2018-10-02T02:29:51.444Z,74.42
2018-10-02T02:32:20.053Z,74.63
2018-10-02T02:34:48.397Z,74.44
2018-10-02T03:03:00.626Z,73.99
2018-10-02T03:05:28.906Z,73.99
2018-10-02T03:07:57.186Z,74.39
2018-10-02T03:10:25.525Z,74.50
2018-10-02T03:12:53.783Z,74.49
2018-10-02T03:15:22.230Z,74.50
2018-10-02T03:17:50.569Z,74.46
2018-10-02T03:20:18.943Z,74.51
2018-10-02T03:22:47.292Z,74.31
2018-10-02T03:25:15.807Z,74.27
2018-10-02T03:27:44.139Z,74.11
2018-10-02T03:30:12.401Z,74.21
2018-10-02T03:32:40.824Z,74.13
2018-10-02T03:35:09.176Z,74.14
2018-10-02T03:37:37.764Z,74.16
2018-10-02T03:40:07.100Z,74.05
2018-10-02T03:42:35.628Z,74.20
2018-10-02T03:45:04.065Z,74.30
2018-10-02T03:47:32.822Z,74.27
2018-10-02T03:50:01.254Z,74.49
2018-10-02T03:52:29.656Z,74.65
2018-10-02T03:54:58.265Z,74.79
2018-10-02T03:57:26.638Z,74.56
2018-10-02T03:59:55.021Z,74.30
2018-10-02T04:02:23.438Z,74.19
2018-10-02T04:04:51.772Z,74.44
2018-10-02T04:07:20.079Z,74.79
2018-10-02T04:09:48.431Z,74.64
2018-10-02T04:12:16.821Z,74.83
2018-10-02T04:14:45.101Z,74.32
2018-10-02T04:17:13.385Z,74.49
2018-10-02T04:19:41.648Z,74.52
2018-10-02T04:22:09.996Z,74.50
2018-10-02T04:24:38.497Z,74.75
2018-10-02T04:27:06.778Z,75.15
2018-10-02T04:29:35.043Z,75.12
2018-10-02T04:32:03.637Z,75.20
2018-10-02T04:34:31.999Z,75.03
2018-10-02T04:37:00.397Z,75.11
2018-10-02T04:39:28.828Z,74.97
2018-10-02T04:41:57.117Z,74.91
2018-10-02T04:44:25.415Z,74.88
2018-10-02T04:46:53.774Z,75.01
2018-10-02T04:49:22.585Z,74.99
2018-10-02T04:51:50.959Z,75.02
2018-10-02T04:54:19.380Z,75.05
2018-10-02T04:56:47.797Z,75.01
2018-10-02T04:59:16.204Z,74.76
2018-10-02T05:01:44.620Z,74.74
2018-10-02T05:04:12.901Z,74.79
2018-10-02T05:06:41.222Z,74.98
2018-10-02T05:09:10.594Z,74.90
2018-10-02T05:11:38.915Z,74.77
2018-10-02T05:14:07.625Z,74.83
2018-10-02T05:16:35.882Z,74.92
2018-10-02T05:19:04.268Z,75.02
2018-10-02T05:21:32.627Z,74.65
2018-10-02T05:24:01.027Z,74.76
2018-10-02T05:26:29.398Z,74.65
2018-10-02T05:28:57.799Z,74.95
2018-10-02T05:31:26.143Z,74.72
2018-10-02T05:33:54.409Z,74.64
2018-10-02T05:36:22.678Z,74.83
2018-10-02T05:38:51.198Z,74.61
2018-10-02T05:41:20.195Z,74.79
2018-10-02T05:43:48.542Z,74.68
2018-10-02T05:46:16.865Z,74.44
2018-10-02T05:48:45.381Z,74.69
2018-10-02T05:51:13.681Z,74.85
2018-10-02T05:53:41.986Z,74.42
2018-10-02T05:56:10.331Z,74.24
2018-10-02T05:58:38.794Z,73.95
2018-10-02T06:01:07.774Z,74.09
2018-10-02T06:03:36.060Z,74.09
2018-10-02T06:06:04.377Z,74.18
2018-10-02T06:08:32.685Z,74.21
2018-10-02T06:11:01.008Z,74.53
2018-10-02T06:13:29.340Z,74.45
2018-10-02T06:15:57.885Z,74.24
2018-10-02T06:18:26.170Z,74.34
2018-10-02T06:20:54.472Z,74.47
2018-10-02T06:23:22.850Z,74.26
2018-10-02T06:25:51.217Z,74.38
2018-10-02T06:28:19.559Z,74.34
2018-10-02T06:30:48.006Z,74.63
2018-10-02T06:33:16.325Z,74.53
2018-10-02T06:35:44.809Z,74.71
2018-10-02T06:38:13.407Z,74.62
2018-10-02T06:40:41.778Z,74.29
2018-10-02T06:43:10.261Z,74.31
2018-10-02T06:45:38.666Z,74.13
2018-10-02T06:48:06.999Z,73.89
2018-10-02T06:50:35.589Z,74.03
2018-10-02T06:53:04.169Z,73.99
2018-10-02T06:55:32.439Z,73.86
2018-10-02T06:58:00.905Z,73.90
2018-10-02T07:00:29.418Z,73.89
2018-10-02T07:02:57.716Z,73.85
2018-10-02T07:05:25.965Z,73.80
2018-10-02T07:07:54.457Z,73.63
2018-10-02T07:10:22.843Z,73.63
2018-10-02T07:12:51.378Z,73.70
2018-10-02T07:15:20.726Z,73.59
2018-10-02T07:17:49.098Z,73.60
2018-10-02T07:20:17.538Z,73.35
2018-10-02T07:22:46.006Z,73.49
2018-10-02T07:25:14.701Z,73.54
2018-10-02T07:27:43.101Z,73.38
2018-10-02T07:30:11.407Z,73.34
2018-10-02T07:32:39.794Z,73.30
2018-10-02T07:35:08.265Z,73.48
2018-10-02T07:37:36.659Z,73.40
2018-10-02T07:40:05.178Z,73.35
2018-10-02T07:42:33.585Z,72.78
2018-10-02T07:45:02.174Z,72.76
2018-10-02T07:47:30.526Z,72.84
2018-10-02T07:49:59.278Z,72.47
2018-10-02T07:52:27.678Z,72.15
2018-10-02T07:54:55.952Z,72.01
2018-10-02T07:57:24.236Z,72.01
2018-10-02T07:59:52.631Z,71.74
2018-10-02T08:02:20.920Z,71.56
2018-10-02T08:04:49.356Z,71.28
2018-10-02T08:07:17.587Z,71.43
2018-10-02T08:09:45.958Z,71.26
2018-10-02T08:12:14.511Z,71.46
2018-10-02T08:14:42.757Z,71.61
2018-10-02T08:17:11.095Z,71.75
2018-10-02T08:19:39.612Z,72.01
2018-10-02T08:22:08.083Z,71.87
2018-10-02T08:24:36.603Z,72.62
2018-10-02T08:27:05.027Z,72.48
2018-10-02T08:29:33.500Z,72.27
2018-10-02T08:32:01.805Z,72.39
2018-10-02T08:34:30.089Z,72.18
2018-10-02T08:36:58.441Z,71.99
2018-10-02T08:39:26.791Z,71.94
2018-10-02T08:41:55.331Z,71.55
2018-10-02T08:44:23.730Z,71.34
2018-10-02T08:46:52.109Z,71.30
2018-10-02T08:49:20.621Z,71.24
2018-10-02T08:51:49.146Z,71.03
2018-10-02T08:54:17.491Z,71.17
2018-10-02T08:56:45.859Z,71.06
2018-10-02T08:59:14.274Z,70.92
2018-10-02T09:01:42.615Z,70.46
2018-10-02T09:04:10.996Z,70.30
2018-10-02T09:06:39.485Z,70.20
2018-10-02T09:09:10.247Z,70.18
2018-10-02T09:11:38.607Z,69.98
2018-10-02T09:14:07.227Z,69.90
2018-10-02T09:16:35.607Z,69.75
2018-10-02T09:19:03.984Z,69.66
2018-10-02T09:21:32.299Z,69.68
2018-10-02T09:24:00.629Z,69.46
2018-10-02T09:26:28.863Z,69.00
2018-10-02T09:28:57.276Z,68.60
2018-10-02T09:31:30.973Z,68.65
2018-10-02T09:34:04.599Z,68.57
2018-10-02T09:36:38.209Z,68.71
2018-10-02T09:39:13.577Z,68.48
2018-10-02T09:41:47.277Z,68.20
2018-10-02T09:44:15.619Z,68.03
2018-10-02T09:46:44.561Z,67.56
2018-10-02T09:49:12.943Z,67.47
2018-10-02T09:51:41.497Z,67.24
2018-10-02T09:54:09.987Z,66.90
2018-10-02T09:56:44.949Z,66.62
2018-10-02T09:59:14.577Z,66.22
2018-10-02T10:01:48.266Z,66.24
2018-10-02T10:04:17.028Z,66.18
2018-10-02T10:06:45.357Z,66.02
2018-10-02T10:09:13.973Z,65.98
2018-10-02T10:11:42.809Z,65.71
2018-10-02T10:14:11.262Z,65.31
2018-10-02T10:16:40.293Z,65.58
2018-10-02T10:19:08.637Z,65.89
2018-10-02T10:21:37.497Z,65.35
2018-10-02T10:24:06.071Z,65.29
2018-10-02T10:26:34.497Z,65.12
2018-10-02T10:29:02.809Z,64.77
2018-10-02T10:31:31.305Z,64.61
2018-10-02T10:34:00.043Z,64.15
2018-10-02T10:36:28.985Z,64.19
2018-10-02T10:38:57.348Z,63.77
2018-10-02T10:41:25.962Z,63.91
2018-10-02T10:43:54.245Z,63.34
2018-10-02T10:46:22.743Z,62.99
2018-10-02T10:48:51.018Z,62.55
2018-10-02T10:51:20.342Z,62.02
2018-10-02T10:53:48.698Z,61.71
2018-10-02T10:56:17.416Z,61.80
2018-10-02T10:58:45.691Z,61.99
2018-10-02T11:01:13.965Z,62.00
2018-10-02T11:03:42.301Z,61.98
2018-10-02T11:06:10.696Z,62.36
2018-10-02T11:08:39.258Z,61.78
2018-10-02T11:11:07.559Z,61.36
2018-10-02T11:13:35.935Z,61.46
2018-10-02T11:16:04.624Z,61.37
2018-10-02T11:18:33.013Z,61.22
2018-10-02T11:21:01.404Z,60.42
2018-10-02T11:23:29.777Z,60.38
2018-10-02T11:25:58.247Z,60.03
2018-10-02T11:28:26.629Z,59.55
2018-10-02T11:30:55.028Z,58.95
2018-10-02T11:33:23.510Z,59.14
2018-10-02T11:35:51.863Z,58.44
2018-10-02T11:38:20.293Z,58.15
2018-10-02T11:40:48.631Z,58.03
2018-10-02T11:43:17.010Z,57.70
2018-10-02T11:45:45.603Z,57.36
2018-10-02T11:48:13.938Z,57.29
2018-10-02T11:50:42.424Z,57.63
2018-10-02T11:53:10.837Z,57.96
2018-10-02T11:55:39.136Z,57.89
2018-10-02T11:58:07.406Z,57.51
2018-10-02T12:00:35.805Z,57.79
2018-10-02T12:03:04.138Z,57.31
2018-10-02T12:05:32.498Z,56.93
2018-10-02T12:08:01.078Z,56.36
2018-10-02T12:10:29.382Z,56.06
2018-10-02T12:12:57.737Z,55.23
2018-10-02T12:15:26.003Z,55.28
2018-10-02T12:17:54.268Z,55.10
2018-10-02T12:20:22.742Z,54.93
2018-10-02T12:22:51.178Z,54.76
2018-10-02T12:25:19.459Z,54.61
2018-10-02T12:27:47.742Z,54.31
2018-10-02T12:30:16.390Z,54.08
2018-10-02T12:32:44.769Z,53.16
2018-10-02T12:35:13.515Z,52.90
2018-10-02T12:37:41.826Z,52.54
2018-10-02T12:40:10.186Z,52.40
2018-10-02T12:42:38.594Z,51.56
2018-10-02T12:45:07.283Z,51.89
2018-10-02T12:47:35.642Z,52.60
2018-10-02T12:50:04.054Z,51.72
2018-10-02T12:52:32.544Z,52.03
2018-10-02T12:55:00.870Z,52.44
2018-10-02T12:57:29.270Z,51.58
2018-10-02T12:59:57.694Z,52.02
2018-10-02T13:02:25.978Z,51.61
2018-10-02T13:04:54.934Z,51.68
2018-10-02T13:07:23.699Z,51.73
2018-10-02T13:09:52.071Z,51.29
2018-10-02T13:12:20.366Z,50.85
2018-10-02T13:14:48.780Z,50.67
2018-10-02T13:17:17.117Z,50.25
2018-10-02T13:19:45.536Z,51.04
2018-10-02T13:22:13.890Z,50.49
2018-10-02T13:24:42.244Z,49.90
2018-10-02T13:27:10.627Z,49.71
2018-10-02T13:29:39.043Z,49.32
2018-10-02T13:32:07.716Z,49.79
2018-10-02T13:34:36.210Z,49.36
2018-10-02T13:37:04.542Z,49.26
2018-10-02T13:39:32.963Z,49.58
2018-10-02T13:42:01.292Z,49.46
2018-10-02T13:44:29.703Z,49.23
2018-10-02T13:46:58.167Z,49.22
2018-10-02T13:49:26.519Z,48.98
2018-10-02T13:51:57.040Z,49.06
2018-10-02T13:54:25.436Z,49.46
2018-10-02T13:56:53.747Z,49.13
2018-10-02T13:59:23.039Z,48.95
2018-10-02T14:01:51.331Z,48.99
2018-10-02T14:04:19.682Z,49.23
2018-10-02T14:06:48.082Z,49.13
2018-10-02T14:09:16.519Z,48.62
2018-10-02T14:11:44.826Z,49.02
2018-10-02T14:14:13.230Z,48.90
2018-10-02T14:16:41.563Z,48.42
2018-10-02T14:19:09.967Z,48.08
2018-10-02T14:21:38.456Z,48.27
2018-10-02T14:24:06.898Z,48.10
2018-10-02T14:26:35.282Z,48.33
2018-10-02T14:29:03.719Z,48.24
2018-10-02T14:31:32.139Z,48.68
2018-10-02T14:34:00.643Z,48.71
2018-10-02T14:36:29.066Z,48.92
2018-10-02T14:38:57.385Z,49.05
2018-10-02T14:41:25.740Z,48.60
2018-10-02T14:43:54.060Z,48.91
2018-10-02T14:46:22.427Z,48.49
2018-10-02T14:48:50.837Z,48.89
2018-10-02T14:51:19.595Z,49.66
2018-10-02T14:53:47.967Z,50.31
2018-10-02T14:56:16.340Z,50.24
2018-10-02T14:58:44.665Z,50.10
2018-10-02T15:01:12.979Z,50.02
2018-10-02T15:03:41.369Z,50.01
2018-10-02T15:06:09.795Z,49.98
2018-10-02T15:08:38.147Z,50.50
2018-10-02T15:11:06.467Z,50.30
2018-10-02T15:13:35.099Z,50.05
2018-10-02T15:16:03.581Z,50.18
2018-10-02T15:18:31.982Z,50.21
2018-10-02T15:21:00.294Z,50.36
2018-10-02T15:23:28.698Z,50.82
2018-10-02T15:25:57.078Z,50.74
2018-10-02T15:28:25.494Z,50.59
2018-10-02T15:30:53.838Z,49.94
2018-10-02T15:33:22.409Z,50.16
2018-10-02T15:35:50.744Z,50.42
2018-10-02T15:38:19.199Z,50.50
2018-10-02T15:40:47.462Z,50.66
2018-10-02T15:43:16.967Z,50.81
2018-10-02T15:45:45.331Z,51.27
2018-10-02T15:48:13.715Z,50.99
2018-10-02T15:50:42.316Z,51.21
2018-10-02T15:53:10.770Z,51.05
2018-10-02T15:55:39.088Z,51.04
2018-10-02T15:58:07.559Z,51.67
2018-10-02T16:00:35.902Z,51.88
2018-10-02T16:03:04.343Z,51.92
2018-10-02T16:05:32.656Z,51.54
2018-10-02T16:08:01.046Z,51.38
2018-10-02T16:10:29.451Z,51.56
2018-10-02T16:12:57.893Z,51.77
2018-10-02T16:15:26.179Z,51.86
2018-10-02T16:17:54.506Z,52.28
2018-10-02T16:20:22.871Z,52.45
2018-10-02T16:22:51.231Z,52.54
2018-10-02T16:25:19.597Z,52.83
2018-10-02T16:27:48.076Z,53.03
2018-10-02T16:30:16.445Z,53.18
2018-10-02T16:32:44.749Z,53.42
2018-10-02T16:35:13.106Z,53.55
2018-10-02T16:37:41.500Z,53.72
2018-10-02T16:40:09.899Z,53.67
2018-10-02T16:42:38.289Z,54.31
2018-10-02T16:45:06.851Z,54.21
2018-10-02T16:47:35.166Z,54.16
2018-10-02T16:50:03.670Z,54.79
2018-10-02T16:52:32.083Z,54.79
2018-10-02T16:55:00.444Z,54.77
2018-10-02T16:57:28.783Z,54.75
2018-10-02T16:59:57.203Z,55.18
2018-10-02T17:02:25.674Z,55.52
2018-10-02T17:04:54.091Z,55.71
2018-10-02T17:07:22.438Z,56.48
2018-10-02T17:09:50.814Z,56.91
2018-10-02T17:12:25.829Z,57.20
2018-10-02T17:14:54.136Z,57.72
2018-10-02T17:17:22.538Z,58.12
2018-10-02T17:19:50.921Z,58.74
2018-10-02T17:22:19.285Z,58.75
2018-10-02T17:24:47.668Z,59.26
2018-10-02T17:27:16.091Z,59.68
2018-10-02T17:29:44.405Z,60.29
2018-10-02T17:32:12.803Z,60.07
2018-10-02T17:34:41.369Z,60.02
2018-10-02T17:37:09.732Z,60.06
2018-10-02T17:39:38.127Z,60.40
2018-10-02T17:42:06.692Z,60.49
2018-10-02T17:44:35.105Z,60.39
2018-10-02T17:47:03.461Z,60.85
2018-10-02T17:49:31.891Z,61.11
2018-10-02T17:52:00.325Z,61.23
2018-10-02T17:54:28.741Z,61.46
2018-10-02T17:56:57.135Z,61.21
2018-10-02T17:59:25.557Z,61.18
2018-10-02T18:01:53.934Z,61.63
2018-10-02T18:04:22.383Z,61.41
2018-10-02T18:06:50.755Z,61.52
2018-10-02T18:09:19.289Z,61.73
2018-10-02T18:11:48.394Z,61.63
2018-10-02T18:14:16.677Z,61.51
2018-10-02T18:16:45.134Z,61.37
2018-10-02T18:19:13.627Z,61.57
2018-10-02T18:21:42.128Z,61.21
2018-10-02T18:24:10.476Z,61.54
2018-10-02T18:26:38.913Z,61.56
2018-10-02T18:29:07.243Z,61.81
2018-10-02T18:31:35.824Z,61.86
2018-10-02T18:34:04.258Z,61.53
2018-10-02T18:36:32.685Z,61.34
2018-10-02T18:39:00.993Z,61.23
2018-10-02T18:41:29.447Z,61.50
2018-10-02T18:43:57.819Z,61.40
2018-10-02T18:46:26.280Z,61.54
2018-10-02T18:48:54.970Z,61.47
2018-10-02T18:51:23.342Z,61.39
2018-10-02T18:53:51.734Z,61.15
2018-10-02T18:56:20.301Z,61.32
2018-10-02T18:58:48.482Z,61.76
2018-10-02T19:01:16.970Z,62.06
2018-10-02T19:03:45.514Z,62.09
2018-10-02T19:06:14.038Z,61.81
2018-10-02T19:08:47.803Z,62.40
2018-10-02T19:11:21.420Z,62.81
2018-10-02T19:13:50.506Z,62.93
2018-10-02T19:16:24.254Z,62.54
2018-10-02T19:18:52.835Z,62.73
2018-10-02T19:21:21.106Z,62.65
2018-10-02T19:23:49.593Z,62.62
2018-10-02T19:26:20.530Z,62.47
2018-10-02T19:28:49.244Z,62.56
2018-10-02T19:31:23.050Z,62.29
2018-10-02T19:33:51.538Z,62.24
2018-10-02T19:36:19.842Z,62.12
2018-10-02T19:38:55.722Z,61.94
2018-10-02T19:41:24.190Z,61.98
2018-10-02T19:43:52.662Z,62.12
2018-10-02T19:46:21.346Z,62.48
2018-10-02T19:48:49.624Z,62.48
2018-10-02T19:51:23.346Z,62.24
2018-10-02T19:53:51.818Z,62.10
2018-10-02T19:56:22.242Z,61.91
2018-10-02T19:58:51.152Z,61.61
2018-10-02T20:01:19.539Z,61.38
2018-10-02T20:03:48.035Z,61.26
2018-10-02T20:06:16.406Z,60.98
2018-10-02T20:08:44.692Z,60.94
2018-10-02T20:11:12.982Z,60.47
2018-10-02T20:13:41.767Z,60.41
2018-10-02T20:16:10.190Z,60.56
2018-10-02T20:18:38.584Z,60.45
2018-10-02T20:21:07.318Z,60.85
2018-10-02T20:23:35.730Z,60.45
2018-10-02T20:26:04.147Z,60.28
2018-10-02T20:28:32.527Z,60.42
2018-10-02T20:31:00.883Z,60.17
2018-10-02T20:33:29.289Z,60.44
2018-10-02T20:35:57.751Z,59.86
2018-10-02T20:38:26.144Z,59.84
2018-10-02T20:40:54.499Z,59.56
2018-10-02T20:43:23.094Z,59.73
2018-10-02T20:45:51.502Z,59.46
2018-10-02T20:48:19.847Z,59.07
2018-10-02T20:50:48.237Z,59.16
2018-10-02T20:53:17.376Z,58.89
2018-10-02T20:55:45.859Z,58.86
2018-10-02T20:58:14.327Z,58.99
2018-10-02T21:00:42.646Z,58.87
2018-10-02T21:03:11.027Z,58.98
2018-10-02T21:05:39.527Z,59.06
2018-10-02T21:08:07.877Z,59.28
2018-10-02T21:10:36.267Z,59.20
2018-10-02T21:13:04.678Z,59.53
2018-10-02T21:15:33.189Z,59.61
2018-10-02T21:18:01.416Z,59.92
2018-10-02T21:20:29.820Z,60.21
2018-10-02T21:22:58.231Z,60.49
2018-10-02T21:25:26.853Z,60.56
2018-10-02T21:27:55.441Z,60.91
2018-10-02T21:30:23.827Z,60.72
2018-10-02T21:32:52.183Z,60.96
2018-10-02T21:35:20.591Z,61.44
2018-10-02T21:37:48.898Z,61.39
2018-10-02T21:40:17.400Z,61.83
2018-10-02T21:42:45.625Z,61.71
2018-10-02T21:45:13.944Z,61.89
2018-10-02T21:47:42.483Z,62.10
2018-10-02T21:50:10.869Z,62.22
2018-10-02T21:52:39.209Z,62.34
2018-10-02T21:55:07.715Z,62.64
2018-10-02T21:57:36.311Z,62.47
2018-10-02T22:00:05.768Z,62.72
2018-10-02T22:02:34.029Z,62.86
2018-10-02T22:05:02.369Z,62.89
2018-10-02T22:07:30.813Z,63.35
2018-10-02T22:09:59.090Z,63.50
2018-10-02T22:12:29.287Z,63.71
2018-10-02T22:14:57.598Z,63.83
2018-10-02T22:17:26.095Z,63.75
2018-10-02T22:19:54.437Z,64.00
2018-10-02T22:22:22.843Z,64.17
2018-10-02T22:24:51.121Z,64.27
2018-10-02T22:27:19.533Z,64.62
2018-10-02T22:29:47.913Z,64.84
2018-10-02T22:32:16.333Z,64.83
2018-10-02T22:34:44.709Z,64.73
2018-10-02T22:37:13.101Z,65.20
2018-10-02T22:39:41.451Z,65.19
2018-10-02T22:42:09.971Z,65.34
2018-10-02T22:44:38.247Z,65.60
2018-10-02T22:47:06.613Z,65.71
2018-10-02T22:49:35.099Z,65.58
2018-10-02T22:52:04.543Z,65.80
2018-10-02T22:54:33.153Z,65.92
2018-10-02T22:57:01.497Z,65.81
2018-10-02T22:59:29.881Z,66.04
2018-10-02T23:01:58.157Z,66.17
2018-10-02T23:04:26.522Z,66.40
2018-10-02T23:06:54.955Z,66.15
2018-10-02T23:09:23.410Z,66.26
2018-10-02T23:11:51.721Z,66.26
2018-10-02T23:14:20.097Z,66.34
2018-10-02T23:16:48.495Z,66.41
2018-10-02T23:19:17.081Z,66.59
2018-10-02T23:21:45.367Z,66.66
2018-10-02T23:24:13.631Z,66.59
2018-10-02T23:26:41.955Z,66.53
2018-10-02T23:29:10.686Z,66.67
2018-10-02T23:31:39.047Z,67.16
2018-10-02T23:34:07.495Z,66.68
2018-10-02T23:36:35.775Z,66.64
2018-10-02T23:39:05.431Z,66.46
2018-10-02T23:41:33.834Z,66.81
2018-10-02T23:44:02.104Z,66.56
2018-10-02T23:46:30.526Z,66.60
2018-10-02T23:48:58.863Z,66.62
2018-10-02T23:51:27.334Z,66.39
2018-10-02T23:53:55.978Z,66.49
2018-10-02T23:56:24.450Z,66.39
2018-10-02T23:58:52.937Z,66.45
